Observation data for Guthrie on 12/09/2018      Previous  Date       Current Mesonet Observations  Soil Data  Daily Summary Page  Observations in Plain Language
KPFS 090600Z 29002KT M04/M05 A3031 RMK A01 T10371045  RH  095%=      5-min Rain = 0
KPFS 090605Z 29002KT M04/M04 A3031 RMK A01 T10361044  RH  095%=      5-min Rain = 0
KPFS 090610Z 30002KT M04/M05 A3031 RMK A01 T10371045  RH  095%=      5-min Rain = 0
KPFS 090615Z 29001KT M04/M05 A3031 RMK A01 T10371045  RH  095%=      5-min Rain = 0
KPFS 090620Z 27001KT M04/M05 A3031 RMK A01 T10371045  RH  095%=      5-min Rain = 0
KPFS 090625Z 29001KT M04/M05 A3031 RMK A01 T10371045  RH  095%=      5-min Rain = 0
KPFS 090630Z 30002KT M04/M05 A3031 RMK A01 T10371045  RH  095%=      5-min Rain = 0
KPFS 090635Z 30003KT M04/M04 A3031 RMK A01 T10361044  RH  095%=      5-min Rain = 0
KPFS 090640Z 31003KT M04/M04 A3031 RMK A01 T10371044  RH  095%=      5-min Rain = 0
KPFS 090645Z 31003KT M04/M05 A3031 RMK A01 T10381046  RH  095%=      5-min Rain = 0
KPFS 090650Z 32003KT M04/M05 A3031 RMK A01 T10401048  RH  094%=      5-min Rain = 0
KPFS 090655Z 31003KT M04/M05 A3031 RMK A01 T10411049  RH  094%=      5-min Rain = 0
KPFS 090700Z 32002KT M04/M05 A3031 RMK A01 T10411050  RH  094%=      5-min Rain = 0
KPFS 090705Z 30002KT M04/M05 A3031 RMK A01 T10421050  RH  094%=      5-min Rain = 0
KPFS 090710Z 32002KT M04/M05 A3031 RMK A01 T10431051  RH  094%=      5-min Rain = 0
KPFS 090715Z 34002KT M04/M05 A3031 RMK A01 T10431052  RH  094%=      5-min Rain = 0
KPFS 090720Z 34004KT M04/M05 A3031 RMK A01 T10441053  RH  094%=      5-min Rain = 0
KPFS 090725Z 33004KT M04/M05 A3031 RMK A01 T10441053  RH  094%=      5-min Rain = 0
KPFS 090730Z 31003KT M04/M05 A3031 RMK A01 T10431052  RH  094%=      5-min Rain = 0
KPFS 090735Z 32003KT M04/M05 A3031 RMK A01 T10431052  RH  094%=      5-min Rain = 0
KPFS 090740Z 32003KT M04/M05 A3031 RMK A01 T10441053  RH  094%=      5-min Rain = 0
KPFS 090745Z 33004KT M04/M05 A3031 RMK A01 T10441053  RH  094%=      5-min Rain = 0
KPFS 090750Z 35004KT M04/M05 A3031 RMK A01 T10441053  RH  094%=      5-min Rain = 0
KPFS 090755Z 36005KT M04/M05 A303 RMK A01 T10431052  RH  094%=      5-min Rain = 0
KPFS 090800Z 35005KT M04/M05 A3031 RMK A01 T10431051  RH  094%=      5-min Rain = 0
KPFS 090805Z 32003KT M05/M05 A3031 RMK A01 T10451054  RH  094%=      5-min Rain = 0
KPFS 090810Z 30002KT M05/M06 A3031 RMK A01 T10461055  RH  094%=      5-min Rain = 0
KPFS 090815Z 30002KT M05/M06 A3031 RMK A01 T10471056  RH  093%=      5-min Rain = 0
KPFS 090820Z 31002KT M05/M06 A3031 RMK A01 T10461055  RH  094%=      5-min Rain = 0
KPFS 090825Z 31001KT M05/M06 A3031 RMK A01 T10461055  RH  094%=      5-min Rain = 0
KPFS 090830Z 35002KT M05/M06 A3031 RMK A01 T10461055  RH  094%=      5-min Rain = 0
KPFS 090835Z 35002KT M05/M05 A3031 RMK A01 T10451054  RH  094%=      5-min Rain = 0
KPFS 090840Z 35004KT M04/M05 A3031 RMK A01 T10431052  RH  094%=      5-min Rain = 0
KPFS 090845Z 31003KT M04/M05 A3031 RMK A01 T10431052  RH  094%=      5-min Rain = 0
KPFS 090850Z 33001KT M05/M05 A303 RMK A01 T10461054  RH  094%=      5-min Rain = 0
KPFS 090855Z 34003KT M05/M05 A303 RMK A01 T10451054  RH  094%=      5-min Rain = 0
KPFS 090900Z 35005KT M04/M05 A303 RMK A01 T10431052  RH  094%=      5-min Rain = 0
KPFS 090905Z 34004KT M04/M05 A3031 RMK A01 T10431052  RH  094%=      5-min Rain = 0
KPFS 090910Z 34004KT M04/M05 A3031 RMK A01 T10431052  RH  094%=      5-min Rain = 0
KPFS 090915Z 34003KT M04/M05 A3031 RMK A01 T10441053  RH  094%=      5-min Rain = 0
KPFS 090920Z 33002KT M05/M05 A3031 RMK A01 T10451054  RH  094%=      5-min Rain = 0
KPFS 090925Z 33002KT M05/M06 A3031 RMK A01 T10461055  RH  094%=      5-min Rain = 0
KPFS 090930Z 34003KT M05/M06 A3031 RMK A01 T10471056  RH  093%=      5-min Rain = 0
KPFS 090935Z 35006KT M05/M06 A3031 RMK A01 T10481057  RH  093%=      5-min Rain = 0
KPFS 090940Z 35007KT M05/M06 A3031 RMK A01 T10461055  RH  093%=      5-min Rain = 0
KPFS 090945Z 35007KT M05/M06 A3031 RMK A01 T10461056  RH  093%=      5-min Rain = 0
KPFS 090950Z 35006KT M05/M06 A3031 RMK A01 T10471057  RH  093%=      5-min Rain = 0
KPFS 090955Z 34006KT M05/M06 A3031 RMK A01 T10471057  RH  093%=      5-min Rain = 0
KPFS 091000Z 35006KT M05/M06 A303 RMK A01 T10471056  RH  093%=      5-min Rain = 0
KPFS 091005Z 34005KT M05/M06 A3031 RMK A01 T10471057  RH  093%=      5-min Rain = 0
KPFS 091010Z 34006KT M05/M06 A3031 RMK A01 T10491059  RH  093%=      5-min Rain = 0
KPFS 091015Z 32003KT M05/M06 A3031 RMK A01 T10501060  RH  093%=      5-min Rain = 0
KPFS 091020Z 31003KT M05/M06 A3031 RMK A01 T10491059  RH  093%=      5-min Rain = 0
KPFS 091025Z 32004KT M05/M06 A3031 RMK A01 T10501060  RH  093%=      5-min Rain = 0
KPFS 091030Z 32004KT M05/M06 A3031 RMK A01 T10501060  RH  093%=      5-min Rain = 0
KPFS 091035Z 32005KT M05/M06 A3031 RMK A01 T10511061  RH  093%=      5-min Rain = 0
KPFS 091040Z 32004KT M05/M06 A3032 RMK A01 T10511062  RH  093%=      5-min Rain = 0
KPFS 091045Z 32004KT M05/M06 A3032 RMK A01 T10521062  RH  093%=      5-min Rain = 0
KPFS 091050Z 33006KT M05/M06 A3032 RMK A01 T10511062  RH  093%=      5-min Rain = 0
KPFS 091055Z 33006KT M05/M06 A3032 RMK A01 T10501061  RH  093%=      5-min Rain = 0
KPFS 091100Z 33005KT M05/M06 A3032 RMK A01 T10511061  RH  093%=      5-min Rain = 0
KPFS 091105Z 35002KT M05/M06 A3032 RMK A01 T10521062  RH  093%=      5-min Rain = 0
KPFS 091110Z 00001KT M05/M06 A3032 RMK A01 T10531063  RH  093%=      5-min Rain = 0
KPFS 091115Z 35002KT M05/M06 A3032 RMK A01 T10521062  RH  093%=      5-min Rain = 0
KPFS 091120Z 32001KT M05/M06 A3032 RMK A01 T10511061  RH  093%=      5-min Rain = 0
KPFS 091125Z 32002KT M05/M06 A3032 RMK A01 T10501060  RH  093%=      5-min Rain = 0
KPFS 091130Z 31002KT M05/M06 A3033 RMK A01 T10511061  RH  093%=      5-min Rain = 0
KPFS 091135Z 31003KT M05/M06 A3033 RMK A01 T10511061  RH  093%=      5-min Rain = 0
KPFS 091140Z 31003KT M05/M06 A3033 RMK A01 T10511061  RH  093%=      5-min Rain = 0
KPFS 091145Z 31003KT M05/M06 A3033 RMK A01 T10511061  RH  093%=      5-min Rain = 0
KPFS 091150Z 31003KT M05/M06 A3033 RMK A01 T10501060  RH  093%=      5-min Rain = 0
KPFS 091155Z 32003KT M05/M06 A3033 RMK A01 T10511061  RH  093%=      5-min Rain = 0
KPFS 091200Z 33003KT M05/M06 A3033 RMK A01 T10521062  RH  093%=      5-min Rain = 0
KPFS 091205Z 32003KT M05/M06 A3033 RMK A01 T10531063  RH  093%=      5-min Rain = 0
KPFS 091210Z 33003KT M05/M06 A3034 RMK A01 T10531063  RH  093%=      5-min Rain = 0
KPFS 091215Z 33003KT M05/M06 A3034 RMK A01 T10531063  RH  093%=      5-min Rain = 0
KPFS 091220Z 33003KT M05/M06 A3034 RMK A01 T10531063  RH  093%=      5-min Rain = 0
KPFS 091225Z 32003KT M05/M06 A3034 RMK A01 T10531063  RH  093%=      5-min Rain = 0
KPFS 091230Z 30002KT M05/M06 A3034 RMK A01 T10521062  RH  093%=      5-min Rain = 0
KPFS 091235Z 29002KT M05/M06 A3035 RMK A01 T10501060  RH  093%=      5-min Rain = 0
KPFS 091240Z 30001KT M05/M06 A3035 RMK A01 T10491059  RH  093%=      5-min Rain = 0
KPFS 091245Z 31002KT M05/M06 A3035 RMK A01 T10511061  RH  093%=      5-min Rain = 0
KPFS 091250Z 31002KT M05/M06 A3035 RMK A01 T10531063  RH  093%=      5-min Rain = 0
KPFS 091255Z 31001KT M05/M06 A3035 RMK A01 T10541064  RH  093%=      5-min Rain = 0
KPFS 091300Z 32001KT M06/M07 A3035 RMK A01 T10551065  RH  092%=      5-min Rain = 0
KPFS 091305Z 31002KT M06/M07 A3035 RMK A01 T10561066  RH  092%=      5-min Rain = 0
KPFS 091310Z 32003KT M06/M07 A3035 RMK A01 T10561066  RH  092%=      5-min Rain = 0
KPFS 091315Z 32002KT M06/M07 A3035 RMK A01 T10561066  RH  092%=      5-min Rain = 0
KPFS 091320Z 33003KT M06/M07 A3035 RMK A01 T10571067  RH  092%=      5-min Rain = 0
KPFS 091325Z 31003KT M06/M07 A3036 RMK A01 T10581068  RH  092%=      5-min Rain = 0
KPFS 091330Z 31002KT M06/M07 A3036 RMK A01 T10591069  RH  092%=      5-min Rain = 0
KPFS 091335Z 31002KT M06/M07 A3036 RMK A01 T10581069  RH  092%=      5-min Rain = 0
KPFS 091340Z 31003KT M06/M07 A3036 RMK A01 T10561067  RH  092%=      5-min Rain = 0
KPFS 091345Z 31004KT M06/M07 A3036 RMK A01 T10551066  RH  092%=      5-min Rain = 0
KPFS 091350Z 31004KT M06/M07 A3036 RMK A01 T10561067  RH  092%=      5-min Rain = 0
KPFS 091355Z 30003KT M06/M07 A3037 RMK A01 T10571068  RH  092%=      5-min Rain = 0
KPFS 091400Z 29003KT M06/M07 A3037 RMK A01 T10561067  RH  092%=      5-min Rain = 0
KPFS 091405Z 30002KT M06/M07 A3037 RMK A01 T10561067  RH  092%=      5-min Rain = 0
KPFS 091410Z 31001KT M05/M06 A3037 RMK A01 T10521063  RH  092%=      5-min Rain = 0
KPFS 091415Z 29002KT M05/M06 A3037 RMK A01 T10511061  RH  092%=      5-min Rain = 0
KPFS 091420Z 29002KT M05/M06 A3037 RMK A01 T10511062  RH  092%=      5-min Rain = 0
KPFS 091425Z 32003KT M05/M06 A3038 RMK A01 T10501061  RH  092%=      5-min Rain = 0
KPFS 091430Z 32004KT M05/M06 A3038 RMK A01 T10521063  RH  092%=      5-min Rain = 0
KPFS 091435Z 32004KT M05/M06 A3038 RMK A01 T10521063  RH  092%=      5-min Rain = 0
KPFS 091440Z 32006KT M05/M06 A3038 RMK A01 T10521063  RH  092%=      5-min Rain = 0
KPFS 091445Z 32005KT M05/M06 A3039 RMK A01 T10511062  RH  092%=      5-min Rain = 0
KPFS 091450Z 32004KT M05/M06 A3039 RMK A01 T10501061  RH  092%=      5-min Rain = 0
KPFS 091455Z 31004KT M05/M06 A3039 RMK A01 T10481059  RH  092%=      5-min Rain = 0
KPFS 091500Z 32003KT M05/M06 A3039 RMK A01 T10461057  RH  092%=      5-min Rain = 0
KPFS 091505Z 31003KT M04/M06 A3039 RMK A01 T10441055  RH  093%=      5-min Rain = 0
KPFS 091510Z 31004KT M04/M05 A3039 RMK A01 T10421052  RH  093%=      5-min Rain = 0
KPFS 091515Z 31004KT M04/M05 A3039 RMK A01 T10401051  RH  093%=      5-min Rain = 0
KPFS 091520Z 31004KT M04/M05 A304 RMK A01 T10381048  RH  093%=      5-min Rain = 0
KPFS 091525Z 30003KT M04/M05 A304 RMK A01 T10351045  RH  093%=      5-min Rain = 0
KPFS 091530Z 31002KT M03/M04 A304 RMK A01 T10331043  RH  093%=      5-min Rain = 0
KPFS 091535Z 31002KT M03/M04 A304 RMK A01 T10311041  RH  094%=      5-min Rain = 0
KPFS 091540Z 31002KT M03/M04 A304 RMK A01 T10301039  RH  094%=      5-min Rain = 0
KPFS 091545Z 31002KT M03/M04 A304 RMK A01 T10281037  RH  094%=      5-min Rain = 0
KPFS 091550Z 31001KT M03/M04 A3041 RMK A01 T10271036  RH  094%=      5-min Rain = 0
KPFS 091555Z 31002KT M02/M03 A3041 RMK A01 T10241033  RH  094%=      5-min Rain = 0
KPFS 091600Z 32002KT M02/M03 A3041 RMK A01 T10241033  RH  094%=      5-min Rain = 0
KPFS 091605Z 33002KT M02/M03 A3041 RMK A01 T10241033  RH  094%=      5-min Rain = 0
KPFS 091610Z 33002KT M02/M03 A3041 RMK A01 T10211029  RH  094%=      5-min Rain = 0
KPFS 091615Z 33003KT M02/M03 A3041 RMK A01 T10191028  RH  094%=      5-min Rain = 0
KPFS 091620Z 34004KT M02/M03 A3041 RMK A01 T10191027  RH  095%=      5-min Rain = 0
KPFS 091625Z 34003KT M02/M03 A3041 RMK A01 T10171025  RH  095%=      5-min Rain = 0.01
KPFS 091630Z 35003KT M01/M02 A3041 RMK A01 T10141022  RH  095%=      5-min Rain = 0
KPFS 091635Z 35003KT M01/M02 A3041 RMK A01 T10141022  RH  095%=      5-min Rain = 0
KPFS 091640Z 35003KT M01/M02 A3041 RMK A01 T10131021  RH  095%=      5-min Rain = 0.01
KPFS 091645Z 34002KT M01/M02 A3041 RMK A01 T10121020  RH  095%=      5-min Rain = 0
KPFS 091650Z 35003KT M01/M02 A3041 RMK A01 T10101018  RH  095%=      5-min Rain = 0
KPFS 091655Z 34004KT M01/M02 A3041 RMK A01 T10091018  RH  095%=      5-min Rain = 0
KPFS 091700Z 33003KT M01/M02 A3041 RMK A01 T10081016  RH  095%=      5-min Rain = 0.01
KPFS 091705Z 35004KT M01/M02 A3041 RMK A01 T10071015  RH  095%=      5-min Rain = 0
KPFS 091710Z 34005KT M01/M02 A3041 RMK A01 T10081016  RH  095%=      5-min Rain = 0
KPFS 091715Z 35004KT M01/M01 A3041 RMK A01 T10061014  RH  095%=      5-min Rain = 0
KPFS 091720Z 35004KT M00/M01 A3041 RMK A01 T10031012  RH  095%=      5-min Rain = 0.01
KPFS 091725Z 34004KT M00/M01 A3041 RMK A01 T10031012  RH  095%=      5-min Rain = 0
KPFS 091730Z 33005KT M00/M01 A304 RMK A01 T10031012  RH  094%=      5-min Rain = 0
KPFS 091735Z 34005KT M00/M01 A304 RMK A01 T10021011  RH  094%=      5-min Rain = 0
KPFS 091740Z 33005KT 00/01 A304 RMK A01 T00-00-10  RH  094%=      5-min Rain = 0.01
KPFS 091745Z 33004KT 00/M01 A304 RMK A01 T00011009  RH  094%=      5-min Rain = 0
KPFS 091750Z 33004KT 00/M01 A304 RMK A01 T00031007  RH  094%=      5-min Rain = 0
KPFS 091755Z 33004KT 00/M01 A304 RMK A01 T00041007  RH  093%=      5-min Rain = 0
KPFS 091800Z 33003KT 01/M01 A304 RMK A01 T00071005  RH  092%=      5-min Rain = 0.01
KPFS 091805Z 33003KT 01/M01 A3039 RMK A01 T00091005  RH  091%=      5-min Rain = 0
KPFS 091810Z 31002KT 01/M00 A3039 RMK A01 T00111004  RH  091%=      5-min Rain = 0
KPFS 091815Z 31003KT 01/M00 A3039 RMK A01 T00111002  RH  092%=      5-min Rain = 0.01
KPFS 091820Z 31004KT 01/M00 A3039 RMK A01 T00101001  RH  094%=      5-min Rain = 0
KPFS 091825Z 32004KT 01/00 A3039 RMK A01 T00100001  RH  095%=      5-min Rain = 0
KPFS 091830Z 32005KT 01/00 A3039 RMK A01 T000900-0  RH  094%=      5-min Rain = 0.01
KPFS 091835Z 31006KT 01/00 A3038 RMK A01 T00130002  RH  093%=      5-min Rain = 0
KPFS 091840Z 31006KT 02/M00 A3038 RMK A01 T00201002  RH  086%=      5-min Rain = 0
KPFS 091845Z 31005KT 03/M02 A3037 RMK A01 T00331017  RH  071%=      5-min Rain = 0.01
KPFS 091850Z 32005KT 04/M04 A3037 RMK A01 T00401041  RH  056%=      5-min Rain = 0
KPFS 091855Z 32004KT 04/M05 A3037 RMK A01 T00431051  RH  051%=      5-min Rain = 0.01
KPFS 091900Z 31004KT 04/M06 A3037 RMK A01 T00431055  RH  049%=      5-min Rain = 0
KPFS 091905Z 32005KT 04/M06 A3037 RMK A01 T00441056  RH  048%=      5-min Rain = 0.01
KPFS 091910Z 31004KT 05/M06 A3037 RMK A01 T00451057  RH  048%=      5-min Rain = 0.01
KPFS 091915Z 32005KT 04/M05 A3036 RMK A01 T00441054  RH  049%=      5-min Rain = 0
KPFS 091920Z 32006KT 04/M05 A3036 RMK A01 T00441051  RH  050%=      5-min Rain = 0.01
KPFS 091925Z 34005KT 04/M04 A3036 RMK A01 T00421038  RH  057%=      5-min Rain = 0
KPFS 091930Z 33006KT 04/M02 A3035 RMK A01 T00351021  RH  067%=      5-min Rain = 0.01
KPFS 091935Z 33005KT 04/M02 A3035 RMK A01 T00351017  RH  070%=      5-min Rain = 0
KPFS 091940Z 34006KT 04/M02 A3035 RMK A01 T00361019  RH  068%=      5-min Rain = 0
KPFS 091945Z 34005KT 04/M03 A3035 RMK A01 T00391025  RH  063%=      5-min Rain = 0.01
KPFS 091950Z 34004KT 05/M05 A3035 RMK A01 T00491049  RH  049%=      5-min Rain = 0
KPFS 091955Z 34005KT 05/M06 A3035 RMK A01 T00501059  RH  045%=      5-min Rain = 0.01
KPFS 092000Z 35006KT 05/M06 A3035 RMK A01 T00521059  RH  045%=      5-min Rain = 0
KPFS 092005Z 34006KT 05/M06 A3035 RMK A01 T00501062  RH  044%=      5-min Rain = 0
KPFS 092010Z 34005KT 05/M06 A3035 RMK A01 T00521060  RH  045%=      5-min Rain = 0.01
KPFS 092015Z 34004KT 05/M07 A3035 RMK A01 T00531065  RH  042%=      5-min Rain = 0
KPFS 092020Z 33004KT 05/M07 A3035 RMK A01 T00531069  RH  041%=      5-min Rain = 0
KPFS 092025Z 33005KT 05/M07 A3035 RMK A01 T00521069  RH  041%=      5-min Rain = 0.01
KPFS 092030Z 34005KT 05/M07 A3035 RMK A01 T00541067  RH  041%=      5-min Rain = 0
KPFS 092035Z 34004KT 05/M07 A3035 RMK A01 T00521073  RH  040%=      5-min Rain = 0
KPFS 092040Z 34004KT 05/M07 A3035 RMK A01 T00541072  RH  040%=      5-min Rain = 0
KPFS 092045Z 34005KT 05/M08 A3035 RMK A01 T00531075  RH  039%=      5-min Rain = 0.01
KPFS 092050Z 34004KT 05/M08 A3035 RMK A01 T00541076  RH  039%=      5-min Rain = 0
KPFS 092055Z 00005KT 06/M07 A3035 RMK A01 T00571070  RH  040%=      5-min Rain = 0
KPFS 092100Z 33005KT 06/M08 A3035 RMK A01 T00551077  RH  038%=      5-min Rain = 0
KPFS 092105Z 34004KT 06/M08 A3035 RMK A01 T00551078  RH  038%=      5-min Rain = 0
KPFS 092110Z 35004KT 06/M08 A3035 RMK A01 T00581077  RH  037%=      5-min Rain = 0.01
KPFS 092115Z 34004KT 06/M08 A3035 RMK A01 T00561077  RH  038%=      5-min Rain = 0
KPFS 092120Z 35004KT 06/M08 A3035 RMK A01 T00571076  RH  038%=      5-min Rain = 0
KPFS 092125Z 32004KT 06/M08 A3035 RMK A01 T00571075  RH  038%=      5-min Rain = 0
KPFS 092130Z 35003KT 06/M07 A3035 RMK A01 T00581072  RH  038%=      5-min Rain = 0
KPFS 092135Z 34003KT 06/M07 A3035 RMK A01 T00581071  RH  039%=      5-min Rain = 0
KPFS 092140Z 33004KT 06/M08 A3035 RMK A01 T00581076  RH  038%=      5-min Rain = 0
KPFS 092145Z 32005KT 06/M08 A3035 RMK A01 T00591078  RH  037%=      5-min Rain = 0
KPFS 092150Z 31005KT 06/M08 A3035 RMK A01 T00581075  RH  038%=      5-min Rain = 0.01
KPFS 092155Z 30005KT 06/M08 A3035 RMK A01 T00601076  RH  037%=      5-min Rain = 0
KPFS 092200Z 32005KT 06/M08 A3035 RMK A01 T00591078  RH  037%=      5-min Rain = 0
KPFS 092205Z 32005KT 06/M08 A3035 RMK A01 T00581077  RH  037%=      5-min Rain = 0
KPFS 092210Z 32005KT 06/M08 A3035 RMK A01 T00571080  RH  037%=      5-min Rain = 0
KPFS 092215Z 31005KT 06/M07 A3035 RMK A01 T00581074  RH  038%=      5-min Rain = 0
KPFS 092220Z 29005KT 06/M06 A3035 RMK A01 T00591063  RH  041%=      5-min Rain = 0.01
KPFS 092225Z 28005KT 06/M06 A3035 RMK A01 T00581061  RH  042%=      5-min Rain = 0.01
KPFS 092230Z 28005KT 06/M06 A3035 RMK A01 T00581060  RH  042%=      5-min Rain = 0.01
KPFS 092235Z 29005KT 06/M06 A3035 RMK A01 T00581061  RH  042%=      5-min Rain = 0
KPFS 092240Z 29005KT 06/M06 A3035 RMK A01 T00561060  RH  043%=      5-min Rain = 0.01
KPFS 092245Z 29005KT 06/M06 A3035 RMK A01 T00551061  RH  043%=      5-min Rain = 0
KPFS 092250Z 30004KT 05/M06 A3035 RMK A01 T00541063  RH  043%=      5-min Rain = 0
KPFS 092255Z 30004KT 05/M06 A3035 RMK A01 T00521064  RH  043%=      5-min Rain = 0
KPFS 092300Z 29004KT 05/M06 A3035 RMK A01 T00521063  RH  043%=      5-min Rain = 0
KPFS 092305Z 27003KT 05/M06 A3035 RMK A01 T00531056  RH  046%=      5-min Rain = 0
KPFS 092310Z 27003KT 05/M05 A3035 RMK A01 T00501054  RH  047%=      5-min Rain = 0
KPFS 092315Z 28003KT 05/M05 A3035 RMK A01 T00481054  RH  048%=      5-min Rain = 0
KPFS 092320Z 28003KT 05/M05 A3035 RMK A01 T00451053  RH  049%=      5-min Rain = 0
KPFS 092325Z 27003KT 04/M05 A3035 RMK A01 T00441052  RH  050%=      5-min Rain = 0
KPFS 092330Z 25003KT 04/M05 A3035 RMK A01 T00401050  RH  052%=      5-min Rain = 0
KPFS 092335Z 25003KT 03/M05 A3035 RMK A01 T00341049  RH  054%=      5-min Rain = 0
KPFS 092340Z 25004KT 03/M05 A3035 RMK A01 T00301050  RH  056%=      5-min Rain = 0
KPFS 092345Z 26004KT 03/M05 A3035 RMK A01 T00251051  RH  058%=      5-min Rain = 0
KPFS 092350Z 26005KT 02/M05 A3035 RMK A01 T00211051  RH  059%=      5-min Rain = 0
KPFS 092355Z 26005KT 02/M05 A3035 RMK A01 T00181049  RH  061%=      5-min Rain = 0
KPFS 100000Z 24004KT 01/M05 A3035 RMK A01 T00141049  RH  063%=      5-min Rain = 0
KPFS 100005Z 23004KT 02/M05 A3035 RMK A01 T00151047  RH  063%=      5-min Rain = 0
KPFS 100010Z 23004KT 01/M05 A3035 RMK A01 T00131045  RH  065%=      5-min Rain = 0
KPFS 100015Z 24004KT 01/M04 A3035 RMK A01 T00121043  RH  067%=      5-min Rain = 0
KPFS 100020Z 24004KT 01/M04 A3035 RMK A01 T00111042  RH  068%=      5-min Rain = 0
KPFS 100025Z 22003KT 01/M04 A3035 RMK A01 T00081042  RH  069%=      5-min Rain = 0
KPFS 100030Z 22003KT 01/M04 A3035 RMK A01 T00061041  RH  071%=      5-min Rain = 0
KPFS 100035Z 23004KT 01/M04 A3035 RMK A01 T00061040  RH  072%=      5-min Rain = 0
KPFS 100040Z 23004KT 01/M04 A3035 RMK A01 T00061039  RH  073%=      5-min Rain = 0
KPFS 100045Z 25004KT 01/M04 A3035 RMK A01 T00061037  RH  073%=      5-min Rain = 0
KPFS 100050Z 25003KT 01/M04 A3035 RMK A01 T00101036  RH  072%=      5-min Rain = 0
KPFS 100055Z 25003KT 01/M04 A3035 RMK A01 T00081037  RH  073%=      5-min Rain = 0
KPFS 100100Z 27004KT 01/M04 A3035 RMK A01 T00101035  RH  073%=      5-min Rain = 0
KPFS 100105Z 29003KT 01/M04 A3035 RMK A01 T00131035  RH  071%=      5-min Rain = 0
KPFS 100110Z 26002KT 01/M04 A3035 RMK A01 T00121036  RH  071%=      5-min Rain = 0
KPFS 100115Z 29001KT 01/M04 A3035 RMK A01 T00111037  RH  071%=      5-min Rain = 0
KPFS 100120Z 32002KT 01/M04 A3035 RMK A01 T00111036  RH  071%=      5-min Rain = 0
KPFS 100125Z 32003KT 01/M04 A3036 RMK A01 T00081037  RH  072%=      5-min Rain = 0
KPFS 100130Z 33003KT 00/M04 A3036 RMK A01 T00041038  RH  074%=      5-min Rain = 0
KPFS 100135Z 32002KT 00/M04 A3036 RMK A01 T00021037  RH  075%=      5-min Rain = 0
KPFS 100140Z 30003KT 00/M04 A3036 RMK A01 T00021036  RH  076%=      5-min Rain = 0
KPFS 100145Z 30003KT 00/M04 A3036 RMK A01 T00011037  RH  076%=      5-min Rain = 0
KPFS 100150Z 31003KT 00/04 A3036 RMK A01 T00-00-37  RH  077%=      5-min Rain = 0
KPFS 100155Z 31002KT M00/M04 A3036 RMK A01 T10011038  RH  077%=      5-min Rain = 0
KPFS 100200Z 28002KT 00/04 A3036 RMK A01 T00-00-37  RH  077%=      5-min Rain = 0
KPFS 100205Z 27002KT 00/M04 A3037 RMK A01 T00011037  RH  076%=      5-min Rain = 0
KPFS 100210Z 25001KT 00/M04 A3036 RMK A01 T00031037  RH  075%=      5-min Rain = 0
KPFS 100215Z 26002KT 00/M04 A3037 RMK A01 T00031038  RH  074%=      5-min Rain = 0
KPFS 100220Z 27002KT 01/M04 A3037 RMK A01 T00051038  RH  073%=      5-min Rain = 0
KPFS 100225Z 26002KT 01/M04 A3037 RMK A01 T00051039  RH  073%=      5-min Rain = 0
KPFS 100230Z 22002KT 00/M04 A3037 RMK A01 T00041040  RH  073%=      5-min Rain = 0
KPFS 100235Z 23002KT 00/M04 A3037 RMK A01 T00011042  RH  074%=      5-min Rain = 0
KPFS 100240Z 22002KT M00/M04 A3037 RMK A01 T10011042  RH  074%=      5-min Rain = 0
KPFS 100245Z 21003KT M00/M05 A3037 RMK A01 T10031045  RH  074%=      5-min Rain = 0
KPFS 100250Z 19004KT M01/M05 A3037 RMK A01 T10101048  RH  076%=      5-min Rain = 0
KPFS 100255Z 20004KT M01/M05 A3037 RMK A01 T10131048  RH  078%=      5-min Rain = 0
KPFS 100300Z 21004KT M01/M05 A3038 RMK A01 T10131047  RH  078%=      5-min Rain = 0
KPFS 100305Z 21003KT M01/M05 A3038 RMK A01 T10131048  RH  078%=      5-min Rain = 0
KPFS 100310Z 21004KT M01/M05 A3038 RMK A01 T10131048  RH  077%=      5-min Rain = 0
KPFS 100315Z 22003KT M01/M05 A3037 RMK A01 T10121049  RH  076%=      5-min Rain = 0
KPFS 100320Z 22003KT M01/M05 A3037 RMK A01 T10101050  RH  074%=      5-min Rain = 0
KPFS 100325Z 22003KT M01/M05 A3037 RMK A01 T10101052  RH  073%=      5-min Rain = 0
KPFS 100330Z 22004KT M01/M05 A3037 RMK A01 T10121054  RH  073%=      5-min Rain = 0
KPFS 100335Z 23003KT M01/M06 A3037 RMK A01 T10141055  RH  074%=      5-min Rain = 0
KPFS 100340Z 23003KT M01/M06 A3037 RMK A01 T10141056  RH  073%=      5-min Rain = 0
KPFS 100345Z 21003KT M02/M06 A3037 RMK A01 T10161057  RH  073%=      5-min Rain = 0
KPFS 100350Z 22003KT M02/M06 A3037 RMK A01 T10181058  RH  074%=      5-min Rain = 0
KPFS 100355Z 23003KT M02/M06 A3037 RMK A01 T10181058  RH  074%=      5-min Rain = 0
KPFS 100400Z 26003KT M02/M06 A3037 RMK A01 T10181058  RH  074%=      5-min Rain = 0
KPFS 100405Z 28003KT M01/M06 A3037 RMK A01 T10141056  RH  073%=      5-min Rain = 0
KPFS 100410Z 28004KT M01/M06 A3038 RMK A01 T10101055  RH  072%=      5-min Rain = 0
KPFS 100415Z 27004KT M01/M06 A3038 RMK A01 T10071055  RH  071%=      5-min Rain = 0
KPFS 100420Z 26004KT M01/M05 A3038 RMK A01 T10061054  RH  070%=      5-min Rain = 0
KPFS 100425Z 25004KT M01/M06 A3038 RMK A01 T10081055  RH  070%=      5-min Rain = 0
KPFS 100430Z 23004KT M02/M06 A3038 RMK A01 T10151058  RH  073%=      5-min Rain = 0
KPFS 100435Z 23004KT M02/M06 A3037 RMK A01 T10161057  RH  074%=      5-min Rain = 0
KPFS 100440Z 21003KT M02/M06 A3037 RMK A01 T10181058  RH  074%=      5-min Rain = 0
KPFS 100445Z 21003KT M02/M06 A3037 RMK A01 T10211059  RH  076%=      5-min Rain = 0
KPFS 100450Z 22003KT M02/M06 A3037 RMK A01 T10201057  RH  076%=      5-min Rain = 0
KPFS 100455Z 21003KT M02/M06 A3037 RMK A01 T10191057  RH  076%=      5-min Rain = 0
KPFS 100500Z 21003KT M02/M06 A3037 RMK A01 T10231059  RH  076%=      5-min Rain = 0
KPFS 100505Z 20004KT M03/M06 A3037 RMK A01 T10261060  RH  078%=      5-min Rain = 0
KPFS 100510Z 20005KT M03/M06 A3037 RMK A01 T10291060  RH  079%=      5-min Rain = 0
KPFS 100515Z 20005KT M03/M06 A3037 RMK A01 T10301060  RH  080%=      5-min Rain = 0
KPFS 100520Z 21004KT M03/M06 A3037 RMK A01 T10301059  RH  081%=      5-min Rain = 0
KPFS 100525Z 23003KT M03/M06 A3037 RMK A01 T10281057  RH  080%=      5-min Rain = 0
KPFS 100530Z 24002KT M03/M06 A3037 RMK A01 T10261055  RH  080%=      5-min Rain = 0
KPFS 100535Z 25002KT M02/M05 A3037 RMK A01 T10221053  RH  079%=      5-min Rain = 0
KPFS 100540Z 26003KT M02/M05 A3037 RMK A01 T10191051  RH  079%=      5-min Rain = 0
KPFS 100545Z 26002KT M02/M05 A3037 RMK A01 T10151049  RH  078%=      5-min Rain = 0
KPFS 100550Z 26002KT M01/M05 A3037 RMK A01 T10121048  RH  077%=      5-min Rain = 0
KPFS 100555Z 23002KT M01/M05 A3037 RMK A01 T10111049  RH  076%=      5-min Rain = 0

Page generated in 0.014 seconds.